Time;durP1;ratioP1;P1;durP2;ratioP2;P2;SDS_P1;SDS_P2;PMS_P1;PMS_P2;Temp;Humidity;BMP_temperature;BMP_pressure;BME280_temperature;BME280_humidity;BME280_pressure;Samples;Min_cycle;Max_cycle;Signal;HPM_P1;HPM_P2
2023/08/16 00:00:16;;;;;;;;;3.75;3.75;;;;;23.33;54.98;101428.63;5036023;28;46720;-69
2023/08/16 00:02:41;;;;;;;;;3.33;3.33;;;;;23.34;54.46;101435.72;5036155;28;45573;-68
2023/08/16 00:05:07;;;;;;;;;4.50;4.00;;;;;23.24;54.55;101419.19;5035990;28;45998;-68
2023/08/16 00:07:34;;;;;;;;;5.00;4.00;;;;;23.27;54.89;101429.72;5037424;28;45484;-68
2023/08/16 00:10:00;;;;;;;;;2.00;2.00;;;;;23.28;54.71;101426.16;5037468;28;45371;-68
2023/08/16 00:12:25;;;;;;;;;5.50;3.00;;;;;23.17;54.88;101406.13;5036135;28;45967;-68
2023/08/16 00:14:51;;;;;;;;;5.00;4.00;;;;;23.26;54.66;101411.97;5032251;28;46815;-67
2023/08/16 00:17:17;;;;;;;;;4.25;3.75;;;;;23.22;54.35;101410.34;5035398;28;45446;-66
2023/08/16 00:19:46;;;;;;;;;3.00;3.00;;;;;23.18;54.21;101410.53;5034711;28;45569;-67
2023/08/16 00:22:11;;;;;;;;;4.00;4.00;;;;;23.20;54.52;101428.25;5034280;28;45631;-66
2023/08/16 00:24:37;;;;;;;;;3.50;3.50;;;;;23.14;54.78;101422.28;5046391;28;46944;-68
2023/08/16 00:27:03;;;;;;;;;4.00;3.67;;;;;23.12;54.96;101418.81;5035521;28;45500;-67
2023/08/16 00:29:29;;;;;;;;;5.00;3.00;;;;;23.20;54.74;101424.69;5036191;28;45330;-67
2023/08/16 00:31:56;;;;;;;;;4.00;2.50;;;;;23.21;54.76;101423.78;5037799;28;45517;-67
2023/08/16 00:34:22;;;;;;;;;3.00;3.00;;;;;23.23;54.59;101424.56;5034927;28;46133;-68
2023/08/16 00:36:51;;;;;;;;;3.25;2.75;;;;;23.07;54.58;101395.81;5034557;28;45621;-66
2023/08/16 00:39:17;;;;;;;;;3.00;3.00;;;;;23.20;54.57;101422.03;5034531;28;45348;-68
2023/08/16 00:41:42;;;;;;;;;3.50;2.25;;;;;23.23;54.40;101424.56;5033641;28;45703;-68
2023/08/16 00:44:12;;;;;;;;;2.50;2.50;;;;;23.27;54.34;101428.88;5037414;28;46258;-68
2023/08/16 00:46:38;;;;;;;;;3.00;3.00;;;;;23.25;54.80;101418.25;5042533;28;46000;-68
2023/08/16 00:49:04;;;;;;;;;3.00;3.00;;;;;23.26;54.86;101417.31;5036177;28;45439;-67
2023/08/16 00:51:30;;;;;;;;;3.00;3.00;;;;;23.22;54.90;101405.00;5036947;28;45473;-68
2023/08/16 00:54:00;;;;;;;;;2.50;2.50;;;;;23.26;54.79;101400.41;5036219;28;45497;-66
2023/08/16 00:56:26;;;;;;;;;4.00;4.00;;;;;23.27;54.74;101400.34;5035714;28;45743;-67
2023/08/16 00:58:52;;;;;;;;;4.25;4.00;;;;;23.28;54.57;101391.41;5035460;28;45351;-67
2023/08/16 01:01:18;;;;;;;;;4.00;4.00;;;;;23.28;54.72;101395.88;5034503;28;45479;-68
2023/08/16 01:03:43;;;;;;;;;3.25;2.50;;;;;23.27;54.38;101397.66;5036609;28;46266;-67
2023/08/16 01:06:09;;;;;;;;;3.50;3.50;;;;;23.25;54.91;101383.53;5040513;28;45381;-69
2023/08/16 01:08:35;;;;;;;;;4.00;3.00;;;;;23.24;54.44;101375.56;5040277;28;45485;-70
2023/08/16 01:11:16;;;;;;;;;2.50;2.50;;;;;23.31;54.33;101384.19;5040365;28;45429;-67
2023/08/16 01:13:54;;;;;;;;;4.50;4.25;;;;;23.25;55.04;101380.84;5039412;28;46363;-68
2023/08/16 01:16:23;;;;;;;;;3.25;3.00;;;;;23.23;55.00;101384.47;5038611;28;45411;-66
2023/08/16 01:18:51;;;;;;;;;2.00;2.00;;;;;23.21;54.75;101387.25;5039027;28;45444;-67
2023/08/16 01:21:19;;;;;;;;;3.25;2.75;;;;;23.22;54.77;101390.78;5039263;28;45450;-68
2023/08/16 01:23:51;;;;;;;;;3.50;3.50;;;;;23.08;54.48;101386.84;5038619;28;45521;-68
2023/08/16 01:26:31;;;;;;;;;3.25;2.50;;;;;23.06;54.35;101398.53;5039621;28;45870;-68
2023/08/16 01:29:00;;;;;;;;;4.33;4.00;;;;;22.83;55.05;101388.72;5037164;28;45596;-68
2023/08/16 01:31:26;;;;;;;;;4.00;4.00;;;;;22.83;55.04;101394.94;5038406;28;45422;-68
2023/08/16 01:33:51;;;;;;;;;4.00;4.00;;;;;22.68;55.03;101381.28;5038504;28;46034;-68
2023/08/16 01:36:17;;;;;;;;;6.00;3.00;;;;;22.60;55.44;101389.59;5039350;28;45468;-68
2023/08/16 01:38:43;;;;;;;;;3.50;3.25;;;;;22.63;55.56;101401.03;5037210;28;45552;-68
2023/08/16 01:41:18;;;;;;;;;5.00;3.25;;;;;22.62;55.51;101406.44;5038472;28;45519;-66
2023/08/16 01:43:45;;;;;;;;;3.75;3.75;;;;;22.58;55.57;101403.00;5038169;28;46743;-68
2023/08/16 01:46:11;;;;;;;;;5.00;2.67;;;;;22.63;55.40;101408.16;5037841;28;45539;-67
2023/08/16 01:48:39;;;;;;;;;4.75;2.50;;;;;22.62;55.28;101403.78;5038049;28;45403;-68
2023/08/16 01:51:06;;;;;;;;;2.00;2.00;;;;;22.61;54.80;101397.56;5039514;28;45594;-68
2023/08/16 01:53:34;;;;;;;;;3.25;3.00;;;;;22.70;55.41;101415.03;5038145;28;46195;-67
2023/08/16 01:56:00;;;;;;;;;3.50;3.50;;;;;22.49;55.17;101384.66;5038466;28;45524;-67
2023/08/16 01:58:25;;;;;;;;;2.50;2.50;;;;;22.73;54.98;101411.34;5038274;28;45471;-67
2023/08/16 02:00:51;;;;;;;;;3.00;2.50;;;;;22.75;54.89;101410.38;5037890;28;45492;-69
2023/08/16 02:03:16;;;;;;;;;2.00;2.00;;;;;22.71;55.18;101406.09;5037685;28;45892;-68
2023/08/16 02:05:42;;;;;;;;;4.00;4.00;;;;;22.73;55.14;101403.34;5038570;28;45373;-68
2023/08/16 02:08:10;;;;;;;;;2.00;2.00;;;;;22.78;54.94;101417.38;5039304;28;45487;-68
2023/08/16 02:10:36;;;;;;;;;4.00;3.00;;;;;22.79;55.00;101409.31;5039863;28;45302;-68
2023/08/16 02:13:02;;;;;;;;;3.25;3.25;;;;;22.81;54.63;101404.81;5038682;28;45444;-68
2023/08/16 02:15:28;;;;;;;;;2.50;2.25;;;;;22.76;54.67;101401.44;5036606;28;45276;-68
2023/08/16 02:17:53;;;;;;;;;2.25;2.00;;;;;22.75;55.10;101390.81;5036546;28;45582;-68
2023/08/16 02:20:19;;;;;;;;;3.00;3.00;;;;;22.79;54.72;101403.13;5037771;28;45383;-68
2023/08/16 02:22:44;;;;;;;;;3.50;3.00;;;;;22.79;54.99;101409.31;5037921;28;46640;-69
2023/08/16 02:25:13;;;;;;;;;2.00;2.00;;;;;22.80;54.80;101405.75;5038056;28;45378;-68
2023/08/16 02:27:40;;;;;;;;;2.00;2.00;;;;;22.80;55.03;101400.41;5039383;28;45405;-68
2023/08/16 02:30:06;;;;;;;;;2.75;2.00;;;;;22.82;55.18;101394.97;5039691;28;45452;-67
2023/08/16 02:32:33;;;;;;;;;3.00;2.00;;;;;22.80;55.02;101396.84;5037701;28;47429;-68
2023/08/16 02:34:59;;;;;;;;;2.75;2.75;;;;;22.84;54.84;101404.69;5036845;28;45732;-68
2023/08/16 02:37:25;;;;;;;;;4.00;2.75;;;;;22.88;54.42;101407.25;5038298;28;45695;-67
2023/08/16 02:39:51;;;;;;;;;4.50;2.00;;;;;22.87;54.42;101409.03;5030857;28;45691;-68
2023/08/16 02:42:17;;;;;;;;;4.00;2.00;;;;;22.81;54.59;101401.28;5037430;28;45488;-68
2023/08/16 02:44:43;;;;;;;;;2.00;2.00;;;;;22.90;54.27;101410.69;5037302;28;45572;-68
2023/08/16 02:47:08;;;;;;;;;2.00;2.00;;;;;22.84;54.20;101395.81;5036096;28;45446;-67
2023/08/16 02:49:34;;;;;;;;;1.75;1.75;;;;;22.87;54.04;101406.34;5037739;28;46171;-67
2023/08/16 02:51:59;;;;;;;;;3.00;3.00;;;;;22.88;54.28;101407.25;5037126;28;45431;-67
2023/08/16 02:54:25;;;;;;;;;4.00;2.50;;;;;22.87;53.99;101401.00;5029175;28;45521;-68
2023/08/16 02:56:51;;;;;;;;;3.00;2.00;;;;;22.82;53.82;101387.84;5038483;28;45483;-68
2023/08/16 02:59:17;;;;;;;;;0.25;0.25;;;;;22.87;54.26;101395.66;5038683;28;45454;-68
2023/08/16 03:01:42;;;;;;;;;3.00;3.00;;;;;22.88;53.74;101391.22;5036853;28;46186;-68
2023/08/16 03:04:09;;;;;;;;;2.00;2.00;;;;;22.89;53.58;101393.81;5037242;28;45477;-68
2023/08/16 03:06:34;;;;;;;;;1.50;1.50;;;;;22.89;53.64;101390.28;5036983;28;45401;-67
2023/08/16 03:09:00;;;;;;;;;2.25;2.25;;;;;22.87;53.57;101395.66;5037787;28;45713;-68
2023/08/16 03:11:26;;;;;;;;;1.75;1.75;;;;;22.88;52.93;101393.91;5037043;28;45471;-67
2023/08/16 03:13:51;;;;;;;;;3.25;2.00;;;;;22.84;53.37;101383.31;5036831;28;45479;-67
2023/08/16 03:16:17;;;;;;;;;1.00;1.00;;;;;22.79;53.36;101371.94;5036005;28;45460;-67
2023/08/16 03:18:42;;;;;;;;;3.00;3.00;;;;;22.86;52.96;101386.78;5036708;28;45509;-67
2023/08/16 03:21:08;;;;;;;;;2.50;2.00;;;;;22.85;53.11;101387.75;5052194;28;47931;-66
2023/08/16 03:23:33;;;;;;;;;2.75;2.50;;;;;22.87;52.54;101385.00;5036235;28;45453;-67
2023/08/16 03:25:59;;;;;;;;;4.00;2.00;;;;;22.83;52.91;101378.91;5036673;28;45283;-67
2023/08/16 03:28:25;;;;;;;;;3.00;2.00;;;;;22.83;52.86;101384.25;5051467;28;45553;-66
2023/08/16 03:30:50;;;;;;;;;2.00;2.00;;;;;22.81;52.90;101390.59;5051463;28;45506;-66
2023/08/16 03:33:16;;;;;;;;;2.00;2.00;;;;;22.83;53.00;101391.41;5035112;28;45373;-68
2023/08/16 03:35:41;;;;;;;;;4.50;3.00;;;;;22.81;52.74;101388.78;5037347;28;45282;-67
2023/08/16 03:38:07;;;;;;;;;4.67;3.00;;;;;22.79;52.66;101387.97;5037109;28;45430;-68
2023/08/16 03:40:32;;;;;;;;;8.67;5.00;;;;;22.77;53.00;101389.81;5036706;28;45417;-67
2023/08/16 03:42:58;;;;;;;;;6.00;4.00;;;;;22.78;52.96;101394.25;5036570;28;45402;-67
2023/08/16 03:45:25;;;;;;;;;8.33;5.00;;;;;22.76;52.79;101389.91;5036490;28;45440;-68
2023/08/16 03:47:52;;;;;;;;;10.00;7.67;;;;;22.78;52.79;101394.25;5038181;28;45446;-67
2023/08/16 03:50:18;;;;;;;;;6.67;6.00;;;;;22.78;52.77;101391.56;5037945;28;46481;-67
2023/08/16 03:52:47;;;;;;;;;8.67;5.33;;;;;22.78;52.68;101391.56;5036639;28;45350;-68
2023/08/16 03:55:12;;;;;;;;;4.33;4.00;;;;;22.60;52.55;101353.09;5036435;28;45369;-67
2023/08/16 03:57:38;;;;;;;;;3.33;3.33;;;;;22.77;52.62;101386.28;5038031;28;45422;-67
2023/08/16 04:00:08;;;;;;;;;4.67;4.00;;;;;22.73;52.94;101382.88;5038503;28;46393;-68
2023/08/16 04:02:33;;;;;;;;;7.00;3.67;;;;;22.75;52.98;101381.00;5038196;28;45584;-67
2023/08/16 04:05:11;;;;;;;;;5.75;3.00;;;;;22.68;52.76;101371.47;5039498;28;45820;-69
2023/08/16 04:07:37;;;;;;;;;2.00;2.00;;;;;22.70;52.97;101376.78;5037415;28;45495;-66
2023/08/16 04:10:03;;;;;;;;;3.00;3.00;;;;;22.65;53.10;101368.94;5036093;28;46520;-67
2023/08/16 04:12:29;;;;;;;;;3.00;3.00;;;;;22.69;52.98;101380.38;5036263;28;45350;-67
2023/08/16 04:14:55;;;;;;;;;2.33;1.33;;;;;22.68;52.82;101386.63;5035574;28;45520;-67
2023/08/16 04:17:20;;;;;;;;;3.00;3.00;;;;;22.64;52.91;101378.75;5051574;28;45612;-67
2023/08/16 04:19:49;;;;;;;;;2.25;2.00;;;;;22.64;52.87;101377.88;5035764;28;45507;-67
2023/08/16 04:22:16;;;;;;;;;3.00;1.75;;;;;22.34;53.02;101327.38;5034422;28;45400;-68
2023/08/16 04:24:41;;;;;;;;;2.25;2.25;;;;;22.57;53.18;101374.56;5036891;28;45433;-68
2023/08/16 04:27:10;;;;;;;;;2.75;2.75;;;;;22.53;53.35;101380.94;5037233;28;45432;-69
2023/08/16 04:29:36;;;;;;;;;2.00;2.00;;;;;22.45;53.73;101375.03;5035990;28;46229;-68
2023/08/16 04:32:01;;;;;;;;;4.33;3.00;;;;;22.30;55.07;101357.78;5034394;28;45517;-68
2023/08/16 04:34:27;;;;;;;;;2.00;2.00;;;;;22.34;54.18;101379.91;5036131;28;45523;-69
2023/08/16 04:36:52;;;;;;;;;5.33;3.00;;;;;22.21;54.21;101369.69;5036953;28;45444;-68
2023/08/16 04:39:18;;;;;;;;;3.67;3.67;;;;;21.78;55.00;101327.63;5037792;28;45650;-67
2023/08/16 04:41:44;;;;;;;;;2.33;2.33;;;;;21.57;55.25;101306.16;5039378;28;45326;-68
2023/08/16 04:44:10;;;;;;;;;1.75;1.75;;;;;22.05;55.06;101376.47;5039197;28;45560;-68
2023/08/16 04:46:35;;;;;;;;;3.00;3.00;;;;;22.18;55.62;101379.53;5039293;28;45287;-68
2023/08/16 04:49:01;;;;;;;;;3.00;3.00;;;;;22.24;55.06;101379.38;5038946;28;45475;-68
2023/08/16 04:51:30;;;;;;;;;4.00;3.00;;;;;22.27;55.80;101370.38;5039019;28;45413;-68
2023/08/16 04:53:55;;;;;;;;;1.33;1.00;;;;;22.44;55.14;101381.28;5040657;28;45396;-67
2023/08/16 04:56:21;;;;;;;;;5.00;2.50;;;;;22.50;54.87;101386.41;5039425;28;45447;-67
2023/08/16 04:58:46;;;;;;;;;2.00;2.00;;;;;22.55;54.73;101378.22;5039331;28;45487;-67
2023/08/16 05:01:17;;;;;;;;;2.75;0.25;;;;;22.35;54.80;101336.25;5054335;28;45528;-68
2023/08/16 05:03:50;;;;;;;;;1.50;1.50;;;;;22.49;54.71;101362.44;5038036;28;45752;-67
2023/08/16 05:06:16;;;;;;;;;5.00;3.00;;;;;22.61;55.30;101373.53;5038721;28;45347;-67
2023/08/16 05:08:41;;;;;;;;;3.00;3.00;;;;;22.73;54.56;101384.66;5039270;28;46408;-68
2023/08/16 05:11:07;;;;;;;;;3.00;3.00;;;;;22.75;54.41;101385.47;5039592;28;45537;-67
2023/08/16 05:13:33;;;;;;;;;3.00;3.00;;;;;22.70;54.23;101366.94;5039015;28;45807;-67
2023/08/16 05:15:59;;;;;;;;;3.75;1.25;;;;;22.80;53.80;101389.72;5038681;28;45483;-67
2023/08/16 05:18:25;;;;;;;;;5.00;4.25;;;;;22.78;53.59;101382.66;5037810;28;48141;-67
2023/08/16 05:20:50;;;;;;;;;3.25;3.25;;;;;22.81;53.99;101393.25;5037040;28;46757;-67
2023/08/16 05:23:16;;;;;;;;;3.67;3.67;;;;;22.82;53.56;101387.84;5038329;28;45464;-68
2023/08/16 05:25:41;;;;;;;;;3.00;2.33;;;;;22.85;53.46;101397.53;5037919;28;45848;-68
2023/08/16 05:28:07;;;;;;;;;2.33;2.33;;;;;22.85;53.26;101401.09;5036370;28;47784;-66
2023/08/16 05:30:33;;;;;;;;;4.67;2.67;;;;;22.82;53.23;101398.53;5036805;28;45480;-68
2023/08/16 05:33:08;;;;;;;;;4.75;4.75;;;;;22.83;53.69;101396.75;5038788;28;45651;-68
2023/08/16 05:35:34;;;;;;;;;3.00;3.00;;;;;22.71;53.48;101367.81;5038425;28;45549;-67
2023/08/16 05:38:04;;;;;;;;;4.00;2.00;;;;;22.90;53.79;101402.69;5036540;28;45485;-67
2023/08/16 05:40:29;;;;;;;;;3.00;3.00;;;;;22.90;53.61;101392.00;5037674;28;45457;-67
2023/08/16 05:42:55;;;;;;;;;2.50;2.00;;;;;22.93;53.26;101399.94;5039096;28;45418;-67
2023/08/16 05:45:27;;;;;;;;;2.25;2.25;;;;;22.94;53.39;101396.31;5038759;28;45724;-67
2023/08/16 05:47:54;;;;;;;;;5.00;3.00;;;;;23.00;52.69;101409.47;5037494;28;46694;-67
2023/08/16 05:50:20;;;;;;;;;3.00;2.00;;;;;22.99;53.23;101397.03;5038415;28;45514;-67
2023/08/16 05:52:48;;;;;;;;;3.00;3.00;;;;;22.93;53.42;101382.09;5038350;28;45498;-67
2023/08/16 05:55:14;;;;;;;;;3.00;2.00;;;;;23.09;52.92;101398.44;5038380;28;45493;-68
2023/08/16 05:57:40;;;;;;;;;1.75;1.75;;;;;23.04;52.97;101384.34;5038054;28;45313;-67
2023/08/16 06:00:06;;;;;;;;;5.00;4.25;;;;;23.16;52.84;101381.22;5037644;28;45378;-67
2023/08/16 06:02:33;;;;;;;;;3.00;3.00;;;;;23.11;52.55;101375.16;5037731;28;45458;-67
2023/08/16 06:04:59;;;;;;;;;2.75;2.00;;;;;23.18;52.27;101390.03;5038455;28;45571;-67
2023/08/16 06:07:30;;;;;;;;;2.25;2.25;;;;;23.21;52.24;101395.25;5037535;28;46464;-68
2023/08/16 06:09:57;;;;;;;;;4.00;4.00;;;;;23.22;52.17;101396.13;5037231;28;45498;-68
2023/08/16 06:12:23;;;;;;;;;3.00;2.25;;;;;23.29;52.13;101411.84;5053164;28;45843;-67
2023/08/16 06:14:49;;;;;;;;;2.75;1.75;;;;;23.32;52.05;101409.97;5037911;28;45395;-68
2023/08/16 06:17:15;;;;;;;;;2.00;2.00;;;;;23.32;52.44;101401.97;5034398;28;45516;-67
2023/08/16 06:19:40;;;;;;;;;4.67;3.33;;;;;23.36;52.16;101417.81;5038729;28;45469;-67
2023/08/16 06:22:07;;;;;;;;;3.25;3.25;;;;;23.10;51.95;101381.44;5038820;28;45425;-68
2023/08/16 06:24:35;;;;;;;;;4.00;2.75;;;;;23.27;52.44;101413.69;5033932;28;45520;-67
2023/08/16 06:27:01;;;;;;;;;2.00;2.00;;;;;23.25;52.69;101401.34;5033757;28;46520;-67
2023/08/16 06:29:26;;;;;;;;;4.00;2.50;;;;;23.28;52.28;101404.75;5037229;28;45333;-68
2023/08/16 06:31:55;;;;;;;;;4.25;4.25;;;;;23.25;52.65;101412.91;5038205;28;45366;-67
2023/08/16 06:34:30;;;;;;;;;4.25;3.50;;;;;23.37;52.71;101424.91;5036201;28;45720;-67
2023/08/16 06:36:56;;;;;;;;;5.25;4.00;;;;;23.00;52.26;101356.91;5036855;28;45387;-68
2023/08/16 06:39:30;;;;;;;;;7.00;5.00;;;;;23.45;52.35;101419.25;5036914;28;45926;-68
2023/08/16 06:41:56;;;;;;;;;3.50;3.50;;;;;23.54;51.55;101401.94;5037242;28;45522;-68
2023/08/16 06:44:22;;;;;;;;;6.25;4.75;;;;;23.68;51.56;101415.59;5039751;28;45386;-67
2023/08/16 06:46:48;;;;;;;;;4.00;4.00;;;;;23.62;51.33;101373.09;5036732;28;46875;-65
2023/08/16 06:49:13;;;;;;;;;4.25;4.00;;;;;23.98;51.63;101396.56;5036338;28;45443;-68
2023/08/16 06:51:39;;;;;;;;;4.00;3.00;;;;;23.90;50.95;101362.13;5035975;28;45445;-67
2023/08/16 06:54:32;;;;;;;;;2.25;2.25;;;;;24.29;50.60;101417.47;5037805;28;45520;-67
2023/08/16 06:56:58;;;;;;;;;3.25;3.25;;;;;24.33;50.68;101411.06;5036720;28;46136;-67
2023/08/16 06:59:24;;;;;;;;;6.75;3.50;;;;;24.48;50.37;101418.41;5036990;28;45488;-67
2023/08/16 07:01:50;;;;;;;;;3.00;2.50;;;;;24.53;49.94;101408.34;5034887;28;45679;-68
2023/08/16 07:04:19;;;;;;;;;3.00;3.00;;;;;24.70;50.10;101418.31;5037584;28;45597;-69
2023/08/16 07:06:45;;;;;;;;;3.75;3.75;;;;;24.62;49.56;101382.97;5036074;28;46160;-68
2023/08/16 07:09:11;;;;;;;;;5.75;4.50;;;;;24.87;49.84;101414.84;5038032;28;45352;-68
2023/08/16 07:12:05;;;;;;;;;5.75;5.00;;;;;24.90;49.49;101414.69;5038084;28;45843;-68
2023/08/16 07:14:31;;;;;;;;;6.50;5.00;;;;;24.93;49.47;101422.56;5037282;28;45508;-68
2023/08/16 07:16:57;;;;;;;;;5.00;4.75;;;;;24.79;49.62;101395.56;5036734;28;45606;-66
2023/08/16 07:19:24;;;;;;;;;5.25;5.00;;;;;24.92;49.55;101417.31;5030784;28;45575;-67
2023/08/16 07:21:50;;;;;;;;;5.75;5.75;;;;;24.56;49.83;101359.16;5036701;28;45522;-68
2023/08/16 07:24:16;;;;;;;;;7.00;5.50;;;;;24.31;49.68;101322.78;5037190;28;45371;-68
2023/08/16 07:26:41;;;;;;;;;4.25;3.00;;;;;24.86;49.98;101422.94;5036540;28;46763;-68
2023/08/16 07:29:10;;;;;;;;;6.00;4.75;;;;;24.79;49.78;101414.31;5052923;28;45587;-68
2023/08/16 07:31:36;;;;;;;;;4.50;4.50;;;;;24.68;49.72;101408.63;5036816;28;45557;-68
2023/08/16 07:34:02;;;;;;;;;10.25;8.75;;;;;24.55;50.52;101422.53;5037771;28;45283;-67
2023/08/16 07:36:32;;;;;;;;;5.00;5.00;;;;;24.46;51.39;101414.94;5038005;28;45525;-69
2023/08/16 07:39:00;;;;;;;;;20.00;20.00;;;;;24.17;51.51;101368.03;5037385;28;45485;-69
2023/08/16 07:41:29;;;;;;;;;81.25;63.75;;;;;24.53;51.47;101412.84;5036548;28;45552;-68
2023/08/16 07:43:55;;;;;;;;;78.75;63.25;;;;;24.60;51.00;101416.97;5035841;28;45214;-68
2023/08/16 07:46:20;;;;;;;;;46.67;37.00;;;;;24.61;51.28;101401.81;5029228;28;46151;-68
2023/08/16 07:49:01;;;;;;;;;20.00;17.00;;;;;24.75;50.53;101410.06;5034470;28;45465;-69
2023/08/16 07:51:28;;;;;;;;;9.33;8.67;;;;;24.77;51.06;101397.44;5031482;28;45584;-68
2023/08/16 07:53:53;;;;;;;;;9.50;9.25;;;;;24.89;51.02;101407.59;5036810;28;45581;-67
2023/08/16 07:56:20;;;;;;;;;7.75;6.25;;;;;24.95;50.61;101406.44;5035891;28;45533;-68
2023/08/16 07:59:12;;;;;;;;;7.00;4.25;;;;;25.08;50.77;101412.06;5036556;28;45512;-67
2023/08/16 08:01:40;;;;;;;;;5.75;4.00;;;;;25.16;50.53;101410.75;5035661;28;45604;-68
2023/08/16 08:04:07;;;;;;;;;8.25;4.50;;;;;25.24;49.31;101406.88;5036734;28;45466;-67
2023/08/16 08:06:36;;;;;;;;;7.25;6.25;;;;;25.22;49.00;101401.56;5036124;28;45382;-68
2023/08/16 08:09:03;;;;;;;;;5.50;5.50;;;;;25.11;49.22;101375.28;5036648;28;45516;-65
2023/08/16 08:11:29;;;;;;;;;5.25;5.25;;;;;25.34;49.54;101406.38;5035695;28;45525;-70
2023/08/16 08:13:54;;;;;;;;;4.25;4.00;;;;;25.39;49.70;101412.38;5034605;28;45406;-69
2023/08/16 08:16:20;;;;;;;;;7.00;5.00;;;;;25.34;49.57;101403.69;5032583;28;45781;-67
2023/08/16 08:18:46;;;;;;;;;7.00;6.00;;;;;25.26;49.44;101375.50;5039297;28;45514;-68
2023/08/16 08:21:12;;;;;;;;;9.00;5.25;;;;;25.46;49.74;101428.13;5038877;28;45559;-69
2023/08/16 08:23:38;;;;;;;;;8.25;7.00;;;;;25.35;50.09;101436.72;5039420;28;45374;-68
2023/08/16 08:26:06;;;;;;;;;6.25;6.00;;;;;25.35;50.26;101418.81;5038889;28;45508;-68
2023/08/16 08:28:32;;;;;;;;;7.00;5.25;;;;;25.38;50.32;101404.38;5040427;28;45493;-67
2023/08/16 08:31:02;;;;;;;;;5.50;4.25;;;;;25.39;49.64;101409.69;5040896;28;45433;-67
2023/08/16 08:33:28;;;;;;;;;5.25;5.25;;;;;25.56;49.05;101421.38;5040932;28;45351;-68
2023/08/16 08:35:53;;;;;;;;;10.50;8.25;;;;;25.53;49.33;101418.84;5039833;28;45379;-67
2023/08/16 08:38:19;;;;;;;;;6.00;6.00;;;;;25.51;49.17;101424.28;5039019;28;45484;-67
2023/08/16 08:41:00;;;;;;;;;5.50;4.75;;;;;25.48;48.99;101420.88;5039763;28;45452;-67
2023/08/16 08:43:38;;;;;;;;;8.50;6.50;;;;;25.53;49.23;101440.28;5038521;28;45511;-67
2023/08/16 08:46:05;;;;;;;;;5.00;5.00;;;;;25.42;49.27;101440.84;5039624;28;45476;-67
2023/08/16 08:48:31;;;;;;;;;7.00;5.50;;;;;25.45;50.01;101438.00;5039871;28;45463;-67
2023/08/16 08:50:58;;;;;;;;;6.25;5.00;;;;;25.45;49.52;101440.69;5039499;28;45858;-66
2023/08/16 08:53:25;;;;;;;;;10.00;6.00;;;;;25.32;50.12;101432.38;5038989;28;45435;-67
2023/08/16 08:55:55;;;;;;;;;5.25;5.25;;;;;25.37;50.13;101443.75;5038971;28;46065;-68
2023/08/16 08:58:23;;;;;;;;;8.25;6.00;;;;;25.45;49.90;101440.69;5037694;28;45499;-68
2023/08/16 09:00:49;;;;;;;;;5.25;5.25;;;;;25.53;50.28;101440.28;5040047;28;45497;-69
2023/08/16 09:03:21;;;;;;;;;8.00;7.00;;;;;25.63;49.64;101432.66;5039697;28;45342;-69
2023/08/16 09:05:52;;;;;;;;;7.00;6.25;;;;;25.73;49.65;101432.13;5039118;28;46969;-68
2023/08/16 09:08:20;;;;;;;;;6.75;6.75;;;;;25.72;49.15;101414.31;5038863;28;45591;-68
2023/08/16 09:10:46;;;;;;;;;6.00;6.00;;;;;25.77;49.50;101428.34;5038494;28;45465;-67
2023/08/16 09:13:12;;;;;;;;;6.00;5.75;;;;;25.88;49.36;101414.41;5038985;28;45404;-67
2023/08/16 09:15:39;;;;;;;;;5.00;5.00;;;;;25.97;49.22;101408.56;5038819;28;46288;-67
2023/08/16 09:18:06;;;;;;;;;7.25;6.75;;;;;26.06;48.71;101414.41;5038889;28;45439;-67
2023/08/16 09:20:32;;;;;;;;;5.00;5.00;;;;;26.17;48.55;101410.22;5038865;28;45414;-67
2023/08/16 09:22:58;;;;;;;;;5.00;5.00;;;;;26.30;48.07;101415.81;5039256;28;45406;-68
2023/08/16 09:25:24;;;;;;;;;6.25;6.25;;;;;26.45;48.49;101420.34;5037035;28;46045;-68
2023/08/16 09:27:52;;;;;;;;;7.75;6.25;;;;;26.44;47.85;101401.63;5039118;28;45487;-68
2023/08/16 09:30:18;;;;;;;;;7.50;7.00;;;;;26.56;48.27;101421.63;5038459;28;45307;-67
2023/08/16 09:32:45;;;;;;;;;9.50;8.25;;;;;26.53;48.40;101403.81;5038587;28;45508;-67
2023/08/16 09:35:16;;;;;;;;;7.25;7.25;;;;;26.58;47.78;101404.47;5037650;28;46147;-69
2023/08/16 09:37:42;;;;;;;;;6.25;6.00;;;;;26.60;48.18;101407.06;5036837;28;45748;-68
2023/08/16 09:40:11;;;;;;;;;6.00;5.25;;;;;26.67;47.67;101413.81;5038534;28;45444;-69
2023/08/16 09:42:37;;;;;;;;;6.75;6.00;;;;;26.59;47.90;101403.50;5038794;28;45261;-68
2023/08/16 09:45:03;;;;;;;;;6.00;6.00;;;;;26.53;47.98;101379.66;5038632;28;46115;-68
2023/08/16 09:47:30;;;;;;;;;8.50;8.00;;;;;26.43;47.40;101362.28;5037138;28;46069;-67
2023/08/16 09:49:57;;;;;;;;;7.00;6.50;;;;;26.62;47.62;101398.00;5038363;28;45428;-68
2023/08/16 09:52:23;;;;;;;;;7.50;6.00;;;;;26.59;47.50;101384.69;5038852;28;45896;-67
2023/08/16 09:54:54;;;;;;;;;6.50;6.00;;;;;26.67;47.51;101389.66;5036989;28;48176;-69
2023/08/16 09:57:19;;;;;;;;;4.60;4.00;;;;;26.78;47.84;101394.44;5038103;28;45610;-68
2023/08/16 09:59:46;;;;;;;;;9.00;6.00;;;;;26.82;48.10;101380.75;5038183;28;45527;-69
2023/08/16 10:02:13;;;;;;;;;6.25;6.25;;;;;26.89;47.58;101381.28;5038471;28;45568;-68
2023/08/16 10:04:40;;;;;;;;;6.00;4.50;;;;;26.95;47.39;101371.97;5037893;28;46325;-68
2023/08/16 10:07:06;;;;;;;;;7.00;6.50;;;;;27.07;47.44;101365.91;5036729;28;45383;-67
2023/08/16 10:09:33;;;;;;;;;9.50;8.50;;;;;27.10;46.95;101373.81;5037362;28;46105;-67
2023/08/16 10:12:01;;;;;;;;;6.25;5.25;;;;;27.14;46.39;101363.75;5038862;28;46157;-68
2023/08/16 10:14:31;;;;;;;;;6.00;6.00;;;;;27.05;46.25;101335.56;5037773;28;46437;-68
2023/08/16 10:17:00;;;;;;;;;6.50;5.25;;;;;27.13;45.30;101351.25;5037532;28;45298;-68
2023/08/16 10:19:32;;;;;;;;;5.00;4.00;;;;;26.80;45.04;101319.97;5039574;28;45393;-66
2023/08/16 10:21:59;;;;;;;;;5.00;5.00;;;;;26.90;45.41;101331.94;5039526;28;45370;-67
2023/08/16 10:24:29;;;;;;;;;3.75;3.75;;;;;27.11;45.76;101366.63;5039371;28;45558;-68
2023/08/16 10:26:57;;;;;;;;;6.40;4.00;;;;;27.10;45.44;101351.41;5038097;28;45459;-68
2023/08/16 10:29:24;;;;;;;;;4.25;3.75;;;;;27.26;45.30;101357.69;5036857;28;45532;-68
2023/08/16 10:31:52;;;;;;;;;5.50;5.50;;;;;27.36;45.28;101366.06;5037615;28;45512;-68
2023/08/16 10:34:20;;;;;;;;;7.50;5.00;;;;;27.45;45.12;101360.16;5054051;28;45524;-68
2023/08/16 10:36:47;;;;;;;;;4.60;4.00;;;;;27.46;44.99;101335.00;5036375;28;45409;-68
2023/08/16 10:39:22;;;;;;;;;3.60;3.00;;;;;27.67;44.49;101349.00;5037186;28;45436;-68
2023/08/16 10:42:01;;;;;;;;;4.00;4.00;;;;;27.67;44.40;101331.03;5036708;28;45534;-67
2023/08/16 10:44:27;;;;;;;;;4.50;4.50;;;;;27.81;43.81;101338.25;5036196;28;47262;-68
2023/08/16 10:46:52;;;;;;;;;4.25;4.25;;;;;28.02;43.45;101356.75;5037848;28;45292;-68
2023/08/16 10:49:20;;;;;;;;;5.00;4.00;;;;;27.88;42.40;101334.28;5037748;28;45402;-67
2023/08/16 10:51:50;;;;;;;;;4.00;4.00;;;;;27.87;42.39;101351.38;5053717;28;45508;-68
2023/08/16 10:54:16;;;;;;;;;3.00;3.00;;;;;27.85;42.68;101345.19;5037480;28;46419;-68
2023/08/16 10:56:49;;;;;;;;;6.00;3.75;;;;;27.87;42.63;101339.75;5037253;28;45482;-68
2023/08/16 10:59:15;;;;;;;;;3.20;3.20;;;;;28.05;42.76;101359.28;5035809;28;45403;-69
2023/08/16 11:01:49;;;;;;;;;3.50;3.50;;;;;28.16;42.48;101348.69;5036464;28;45538;-68
2023/08/16 11:04:14;;;;;;;;;3.00;3.00;;;;;28.19;42.01;101328.78;5038151;28;45449;-68
2023/08/16 11:06:40;;;;;;;;;4.50;4.50;;;;;28.28;42.84;101333.59;5037252;28;45504;-68
2023/08/16 11:09:07;;;;;;;;;3.75;2.50;;;;;28.29;41.96;101336.22;5037429;28;45519;-69
2023/08/16 11:11:33;;;;;;;;;5.25;4.75;;;;;28.28;42.16;101334.47;5038137;28;45610;-68
2023/08/16 11:14:00;;;;;;;;;3.75;3.75;;;;;28.27;42.67;101326.50;5036698;28;45526;-69
2023/08/16 11:16:37;;;;;;;;;3.00;3.00;;;;;28.34;42.54;101322.44;5036898;28;45471;-68
2023/08/16 11:19:04;;;;;;;;;6.25;6.25;;;;;28.42;42.67;101327.34;5036031;28;45323;-67
2023/08/16 11:21:32;;;;;;;;;4.00;3.50;;;;;28.51;42.80;101330.34;5036835;28;45468;-67
2023/08/16 11:23:58;;;;;;;;;3.75;3.75;;;;;28.63;42.47;101344.84;5036554;28;45575;-67